sensor_id;sensor_type;location;lat;lon;timestamp;P1;durP1;ratioP1;P2;durP2;ratioP2
50781;SDS011;36749;37.428;-121.972;2024-01-11T00:02:20;11.60;;;3.20;;
50781;SDS011;36749;37.428;-121.972;2024-01-11T00:04:46;11.38;;;3.38;;
50781;SDS011;36749;37.428;-121.972;2024-01-11T00:07:13;11.98;;;3.30;;
50781;SDS011;36749;37.428;-121.972;2024-01-11T00:09:39;10.48;;;3.83;;
50781;SDS011;36749;37.428;-121.972;2024-01-11T00:12:07;10.20;;;2.70;;
50781;SDS011;36749;37.428;-121.972;2024-01-11T00:14:33;15.40;;;3.13;;
50781;SDS011;36749;37.428;-121.972;2024-01-11T00:17:00;13.95;;;3.25;;
50781;SDS011;36749;37.428;-121.972;2024-01-11T00:19:26;8.85;;;3.17;;
50781;SDS011;36749;37.428;-121.972;2024-01-11T00:21:53;13.25;;;3.15;;
50781;SDS011;36749;37.428;-121.972;2024-01-11T00:24:19;12.88;;;4.20;;
50781;SDS011;36749;37.428;-121.972;2024-01-11T00:26:45;13.68;;;3.55;;
50781;SDS011;36749;37.428;-121.972;2024-01-11T00:29:11;8.27;;;2.30;;
50781;SDS011;36749;37.428;-121.972;2024-01-11T00:31:37;13.27;;;2.45;;
50781;SDS011;36749;37.428;-121.972;2024-01-11T00:34:04;9.65;;;2.60;;
50781;SDS011;36749;37.428;-121.972;2024-01-11T00:36:30;4.70;;;2.30;;
50781;SDS011;36749;37.428;-121.972;2024-01-11T00:38:58;10.77;;;2.90;;
50781;SDS011;36749;37.428;-121.972;2024-01-11T00:41:24;6.68;;;2.80;;
50781;SDS011;36749;37.428;-121.972;2024-01-11T00:43:51;8.95;;;2.88;;
50781;SDS011;36749;37.428;-121.972;2024-01-11T00:46:17;5.65;;;2.17;;
50781;SDS011;36749;37.428;-121.972;2024-01-11T00:48:43;14.23;;;2.70;;
50781;SDS011;36749;37.428;-121.972;2024-01-11T00:51:09;8.82;;;2.67;;
50781;SDS011;36749;37.428;-121.972;2024-01-11T00:53:35;11.52;;;2.75;;
50781;SDS011;36749;37.428;-121.972;2024-01-11T00:56:01;8.35;;;2.42;;
50781;SDS011;36749;37.428;-121.972;2024-01-11T00:58:28;10.90;;;2.78;;
50781;SDS011;36749;37.428;-121.972;2024-01-11T01:00:54;8.95;;;3.05;;
50781;SDS011;36749;37.428;-121.972;2024-01-11T01:03:21;18.13;;;3.95;;
50781;SDS011;36749;37.428;-121.972;2024-01-11T01:05:47;10.93;;;3.47;;
50781;SDS011;36749;37.428;-121.972;2024-01-11T01:08:14;11.90;;;3.15;;
50781;SDS011;36749;37.428;-121.972;2024-01-11T01:10:40;13.75;;;3.22;;
50781;SDS011;36749;37.428;-121.972;2024-01-11T01:13:06;16.33;;;4.65;;
50781;SDS011;36749;37.428;-121.972;2024-01-11T01:15:32;18.08;;;4.50;;
50781;SDS011;36749;37.428;-121.972;2024-01-11T01:17:58;17.27;;;4.95;;
50781;SDS011;36749;37.428;-121.972;2024-01-11T01:20:25;15.30;;;3.97;;
50781;SDS011;36749;37.428;-121.972;2024-01-11T01:22:51;13.75;;;3.97;;
50781;SDS011;36749;37.428;-121.972;2024-01-11T01:25:17;15.80;;;3.95;;
50781;SDS011;36749;37.428;-121.972;2024-01-11T01:27:43;15.95;;;3.30;;
50781;SDS011;36749;37.428;-121.972;2024-01-11T01:30:10;12.40;;;2.67;;
50781;SDS011;36749;37.428;-121.972;2024-01-11T01:32:36;14.43;;;2.67;;
50781;SDS011;36749;37.428;-121.972;2024-01-11T01:35:02;14.85;;;3.08;;
50781;SDS011;36749;37.428;-121.972;2024-01-11T01:37:28;13.88;;;3.38;;
50781;SDS011;36749;37.428;-121.972;2024-01-11T01:39:54;13.45;;;2.78;;
50781;SDS011;36749;37.428;-121.972;2024-01-11T01:42:21;12.07;;;3.38;;
50781;SDS011;36749;37.428;-121.972;2024-01-11T01:44:47;15.73;;;2.65;;
50781;SDS011;36749;37.428;-121.972;2024-01-11T01:47:14;12.93;;;2.95;;
50781;SDS011;36749;37.428;-121.972;2024-01-11T01:49:41;11.48;;;3.13;;
50781;SDS011;36749;37.428;-121.972;2024-01-11T01:52:08;17.83;;;3.10;;
50781;SDS011;36749;37.428;-121.972;2024-01-11T01:54:35;12.38;;;2.95;;
50781;SDS011;36749;37.428;-121.972;2024-01-11T01:57:01;21.15;;;4.03;;
50781;SDS011;36749;37.428;-121.972;2024-01-11T01:59:29;13.52;;;3.80;;
50781;SDS011;36749;37.428;-121.972;2024-01-11T02:01:55;18.08;;;2.72;;
50781;SDS011;36749;37.428;-121.972;2024-01-11T02:04:21;15.85;;;3.88;;
50781;SDS011;36749;37.428;-121.972;2024-01-11T02:06:48;17.08;;;3.17;;
50781;SDS011;36749;37.428;-121.972;2024-01-11T02:09:15;20.52;;;3.97;;
50781;SDS011;36749;37.428;-121.972;2024-01-11T02:11:44;19.27;;;3.58;;
50781;SDS011;36749;37.428;-121.972;2024-01-11T02:14:10;14.25;;;3.40;;
50781;SDS011;36749;37.428;-121.972;2024-01-11T02:16:37;15.82;;;3.65;;
50781;SDS011;36749;37.428;-121.972;2024-01-11T02:19:07;15.38;;;2.92;;
50781;SDS011;36749;37.428;-121.972;2024-01-11T02:21:37;17.38;;;3.45;;
50781;SDS011;36749;37.428;-121.972;2024-01-11T02:24:04;18.85;;;4.47;;
50781;SDS011;36749;37.428;-121.972;2024-01-11T02:26:32;17.60;;;3.20;;
50781;SDS011;36749;37.428;-121.972;2024-01-11T02:28:58;16.40;;;3.50;;
50781;SDS011;36749;37.428;-121.972;2024-01-11T02:31:24;27.02;;;5.13;;
50781;SDS011;36749;37.428;-121.972;2024-01-11T02:33:51;19.85;;;3.42;;
50781;SDS011;36749;37.428;-121.972;2024-01-11T02:36:18;14.82;;;3.80;;
50781;SDS011;36749;37.428;-121.972;2024-01-11T02:38:46;13.05;;;3.10;;
50781;SDS011;36749;37.428;-121.972;2024-01-11T02:41:14;17.83;;;3.58;;
50781;SDS011;36749;37.428;-121.972;2024-01-11T02:43:46;23.15;;;4.30;;
50781;SDS011;36749;37.428;-121.972;2024-01-11T02:46:14;21.23;;;4.68;;
50781;SDS011;36749;37.428;-121.972;2024-01-11T02:48:41;17.45;;;3.47;;
50781;SDS011;36749;37.428;-121.972;2024-01-11T02:51:07;18.40;;;2.85;;
50781;SDS011;36749;37.428;-121.972;2024-01-11T02:53:33;11.43;;;2.72;;
50781;SDS011;36749;37.428;-121.972;2024-01-11T02:56:02;13.93;;;2.65;;
50781;SDS011;36749;37.428;-121.972;2024-01-11T02:58:29;19.20;;;3.33;;
50781;SDS011;36749;37.428;-121.972;2024-01-11T03:00:55;17.75;;;3.30;;
50781;SDS011;36749;37.428;-121.972;2024-01-11T03:03:21;8.75;;;2.90;;
50781;SDS011;36749;37.428;-121.972;2024-01-11T03:05:47;9.77;;;3.08;;
50781;SDS011;36749;37.428;-121.972;2024-01-11T03:08:13;10.02;;;2.80;;
50781;SDS011;36749;37.428;-121.972;2024-01-11T03:10:39;16.85;;;4.07;;
50781;SDS011;36749;37.428;-121.972;2024-01-11T03:13:06;13.98;;;3.00;;
50781;SDS011;36749;37.428;-121.972;2024-01-11T03:15:33;12.27;;;2.78;;
50781;SDS011;36749;37.428;-121.972;2024-01-11T03:17:59;11.40;;;2.30;;
50781;SDS011;36749;37.428;-121.972;2024-01-11T03:20:26;14.00;;;2.53;;
50781;SDS011;36749;37.428;-121.972;2024-01-11T03:22:52;15.57;;;2.08;;
50781;SDS011;36749;37.428;-121.972;2024-01-11T03:25:18;14.52;;;3.17;;
50781;SDS011;36749;37.428;-121.972;2024-01-11T03:27:44;11.63;;;2.08;;
50781;SDS011;36749;37.428;-121.972;2024-01-11T03:30:11;16.10;;;3.40;;
50781;SDS011;36749;37.428;-121.972;2024-01-11T03:32:37;19.10;;;3.50;;
50781;SDS011;36749;37.428;-121.972;2024-01-11T03:35:07;15.88;;;3.05;;
50781;SDS011;36749;37.428;-121.972;2024-01-11T03:37:34;20.52;;;4.35;;
50781;SDS011;36749;37.428;-121.972;2024-01-11T03:40:00;21.25;;;4.15;;
50781;SDS011;36749;37.428;-121.972;2024-01-11T03:42:28;14.55;;;3.30;;
50781;SDS011;36749;37.428;-121.972;2024-01-11T03:44:54;18.80;;;3.40;;
50781;SDS011;36749;37.428;-121.972;2024-01-11T03:47:20;13.35;;;3.15;;
50781;SDS011;36749;37.428;-121.972;2024-01-11T03:49:47;16.45;;;3.10;;
50781;SDS011;36749;37.428;-121.972;2024-01-11T03:52:13;11.50;;;2.25;;
50781;SDS011;36749;37.428;-121.972;2024-01-11T03:54:39;14.75;;;2.40;;
50781;SDS011;36749;37.428;-121.972;2024-01-11T03:57:05;12.85;;;2.95;;
50781;SDS011;36749;37.428;-121.972;2024-01-11T03:59:32;10.63;;;1.88;;
50781;SDS011;36749;37.428;-121.972;2024-01-11T04:01:58;10.15;;;1.88;;
50781;SDS011;36749;37.428;-121.972;2024-01-11T04:04:25;5.15;;;1.40;;
50781;SDS011;36749;37.428;-121.972;2024-01-11T04:06:51;10.70;;;1.92;;
50781;SDS011;36749;37.428;-121.972;2024-01-11T04:09:20;11.52;;;2.28;;
50781;SDS011;36749;37.428;-121.972;2024-01-11T04:11:46;6.75;;;1.40;;
50781;SDS011;36749;37.428;-121.972;2024-01-11T04:14:12;8.55;;;1.80;;
50781;SDS011;36749;37.428;-121.972;2024-01-11T04:16:42;6.65;;;1.50;;
50781;SDS011;36749;37.428;-121.972;2024-01-11T04:19:08;5.22;;;1.60;;
50781;SDS011;36749;37.428;-121.972;2024-01-11T04:21:35;7.72;;;1.65;;
50781;SDS011;36749;37.428;-121.972;2024-01-11T04:24:04;14.55;;;2.42;;
50781;SDS011;36749;37.428;-121.972;2024-01-11T04:26:33;6.43;;;2.15;;
50781;SDS011;36749;37.428;-121.972;2024-01-11T04:28:59;9.20;;;1.92;;
50781;SDS011;36749;37.428;-121.972;2024-01-11T04:31:26;14.50;;;3.08;;
50781;SDS011;36749;37.428;-121.972;2024-01-11T04:33:52;7.32;;;2.00;;
50781;SDS011;36749;37.428;-121.972;2024-01-11T04:36:18;14.65;;;2.95;;
50781;SDS011;36749;37.428;-121.972;2024-01-11T04:38:45;15.60;;;2.45;;
50781;SDS011;36749;37.428;-121.972;2024-01-11T04:41:12;24.55;;;5.00;;
50781;SDS011;36749;37.428;-121.972;2024-01-11T04:43:39;27.67;;;3.05;;
50781;SDS011;36749;37.428;-121.972;2024-01-11T04:46:18;15.98;;;2.85;;
50781;SDS011;36749;37.428;-121.972;2024-01-11T04:48:46;14.38;;;2.88;;
50781;SDS011;36749;37.428;-121.972;2024-01-11T04:51:13;9.00;;;2.15;;
50781;SDS011;36749;37.428;-121.972;2024-01-11T04:53:39;14.68;;;2.17;;
50781;SDS011;36749;37.428;-121.972;2024-01-11T04:56:06;11.73;;;2.78;;
50781;SDS011;36749;37.428;-121.972;2024-01-11T04:58:33;19.52;;;3.17;;
50781;SDS011;36749;37.428;-121.972;2024-01-11T05:01:00;8.65;;;2.42;;
50781;SDS011;36749;37.428;-121.972;2024-01-11T05:03:28;13.63;;;3.88;;
50781;SDS011;36749;37.428;-121.972;2024-01-11T05:05:54;12.02;;;3.13;;
50781;SDS011;36749;37.428;-121.972;2024-01-11T05:08:21;15.85;;;2.78;;
50781;SDS011;36749;37.428;-121.972;2024-01-11T05:10:48;11.85;;;2.75;;
50781;SDS011;36749;37.428;-121.972;2024-01-11T05:13:14;12.27;;;2.67;;
50781;SDS011;36749;37.428;-121.972;2024-01-11T05:15:40;15.68;;;2.85;;
50781;SDS011;36749;37.428;-121.972;2024-01-11T05:18:06;13.93;;;2.42;;
50781;SDS011;36749;37.428;-121.972;2024-01-11T05:20:33;14.70;;;2.90;;
50781;SDS011;36749;37.428;-121.972;2024-01-11T05:22:59;12.13;;;2.53;;
50781;SDS011;36749;37.428;-121.972;2024-01-11T05:25:26;14.98;;;3.00;;
50781;SDS011;36749;37.428;-121.972;2024-01-11T05:27:52;18.45;;;2.95;;
50781;SDS011;36749;37.428;-121.972;2024-01-11T05:30:19;16.13;;;3.25;;
50781;SDS011;36749;37.428;-121.972;2024-01-11T05:32:45;9.88;;;2.17;;
50781;SDS011;36749;37.428;-121.972;2024-01-11T05:35:11;12.05;;;3.17;;
50781;SDS011;36749;37.428;-121.972;2024-01-11T05:37:37;18.38;;;2.80;;
50781;SDS011;36749;37.428;-121.972;2024-01-11T05:40:04;14.35;;;2.08;;
50781;SDS011;36749;37.428;-121.972;2024-01-11T05:42:30;6.95;;;2.03;;
50781;SDS011;36749;37.428;-121.972;2024-01-11T05:44:57;15.68;;;2.55;;
50781;SDS011;36749;37.428;-121.972;2024-01-11T05:47:23;13.73;;;2.40;;
50781;SDS011;36749;37.428;-121.972;2024-01-11T05:49:49;9.65;;;2.22;;
50781;SDS011;36749;37.428;-121.972;2024-01-11T05:52:15;11.63;;;2.65;;
50781;SDS011;36749;37.428;-121.972;2024-01-11T05:54:41;15.40;;;2.92;;
50781;SDS011;36749;37.428;-121.972;2024-01-11T05:57:07;9.25;;;2.53;;
50781;SDS011;36749;37.428;-121.972;2024-01-11T05:59:34;15.80;;;2.17;;
50781;SDS011;36749;37.428;-121.972;2024-01-11T06:02:00;9.52;;;2.28;;
50781;SDS011;36749;37.428;-121.972;2024-01-11T06:04:27;10.18;;;2.20;;
50781;SDS011;36749;37.428;-121.972;2024-01-11T06:06:53;15.20;;;3.20;;
50781;SDS011;36749;37.428;-121.972;2024-01-11T06:09:19;14.73;;;2.92;;
50781;SDS011;36749;37.428;-121.972;2024-01-11T06:11:45;10.52;;;2.78;;
50781;SDS011;36749;37.428;-121.972;2024-01-11T06:14:11;8.82;;;2.30;;
50781;SDS011;36749;37.428;-121.972;2024-01-11T06:16:37;9.82;;;2.10;;
50781;SDS011;36749;37.428;-121.972;2024-01-11T06:19:03;12.02;;;2.20;;
50781;SDS011;36749;37.428;-121.972;2024-01-11T06:21:30;9.32;;;2.53;;
50781;SDS011;36749;37.428;-121.972;2024-01-11T06:23:56;12.95;;;2.70;;
50781;SDS011;36749;37.428;-121.972;2024-01-11T06:26:22;13.10;;;2.80;;
50781;SDS011;36749;37.428;-121.972;2024-01-11T06:28:48;6.82;;;2.17;;
50781;SDS011;36749;37.428;-121.972;2024-01-11T06:31:14;7.35;;;2.58;;
50781;SDS011;36749;37.428;-121.972;2024-01-11T06:33:40;12.60;;;2.40;;
50781;SDS011;36749;37.428;-121.972;2024-01-11T06:36:08;15.15;;;2.55;;
50781;SDS011;36749;37.428;-121.972;2024-01-11T06:38:34;14.55;;;2.60;;
50781;SDS011;36749;37.428;-121.972;2024-01-11T06:41:00;9.82;;;2.42;;
50781;SDS011;36749;37.428;-121.972;2024-01-11T06:43:26;16.23;;;2.80;;
50781;SDS011;36749;37.428;-121.972;2024-01-11T06:45:52;20.48;;;3.03;;
50781;SDS011;36749;37.428;-121.972;2024-01-11T06:48:19;15.68;;;2.83;;
50781;SDS011;36749;37.428;-121.972;2024-01-11T06:50:45;11.20;;;2.92;;
50781;SDS011;36749;37.428;-121.972;2024-01-11T06:53:11;21.00;;;3.45;;
50781;SDS011;36749;37.428;-121.972;2024-01-11T06:55:37;18.50;;;2.67;;
50781;SDS011;36749;37.428;-121.972;2024-01-11T06:58:06;9.80;;;3.67;;
50781;SDS011;36749;37.428;-121.972;2024-01-11T07:00:32;16.27;;;3.20;;
50781;SDS011;36749;37.428;-121.972;2024-01-11T07:02:58;11.05;;;2.70;;
50781;SDS011;36749;37.428;-121.972;2024-01-11T07:05:24;13.68;;;2.92;;
50781;SDS011;36749;37.428;-121.972;2024-01-11T07:07:51;15.82;;;2.63;;
50781;SDS011;36749;37.428;-121.972;2024-01-11T07:10:17;16.02;;;2.85;;
50781;SDS011;36749;37.428;-121.972;2024-01-11T07:12:43;18.27;;;2.55;;
50781;SDS011;36749;37.428;-121.972;2024-01-11T07:15:11;24.15;;;4.43;;
50781;SDS011;36749;37.428;-121.972;2024-01-11T07:17:38;10.90;;;2.90;;
50781;SDS011;36749;37.428;-121.972;2024-01-11T07:20:04;12.57;;;2.72;;
50781;SDS011;36749;37.428;-121.972;2024-01-11T07:22:31;12.43;;;2.50;;
50781;SDS011;36749;37.428;-121.972;2024-01-11T07:24:57;10.68;;;2.10;;
50781;SDS011;36749;37.428;-121.972;2024-01-11T07:27:23;21.33;;;4.45;;
50781;SDS011;36749;37.428;-121.972;2024-01-11T07:29:49;11.00;;;2.55;;
50781;SDS011;36749;37.428;-121.972;2024-01-11T07:32:15;12.38;;;2.22;;
50781;SDS011;36749;37.428;-121.972;2024-01-11T07:34:41;12.27;;;2.65;;
50781;SDS011;36749;37.428;-121.972;2024-01-11T07:37:08;8.80;;;2.17;;
50781;SDS011;36749;37.428;-121.972;2024-01-11T07:39:34;15.80;;;2.60;;
50781;SDS011;36749;37.428;-121.972;2024-01-11T07:42:01;17.35;;;2.88;;
50781;SDS011;36749;37.428;-121.972;2024-01-11T07:44:28;13.80;;;2.63;;
50781;SDS011;36749;37.428;-121.972;2024-01-11T07:46:54;11.70;;;2.42;;
50781;SDS011;36749;37.428;-121.972;2024-01-11T07:49:21;16.05;;;3.20;;
50781;SDS011;36749;37.428;-121.972;2024-01-11T07:51:47;8.50;;;2.22;;
50781;SDS011;36749;37.428;-121.972;2024-01-11T07:54:13;12.05;;;2.38;;
50781;SDS011;36749;37.428;-121.972;2024-01-11T07:56:39;14.23;;;3.70;;
50781;SDS011;36749;37.428;-121.972;2024-01-11T07:59:05;8.88;;;2.22;;
50781;SDS011;36749;37.428;-121.972;2024-01-11T08:01:32;15.02;;;2.28;;
50781;SDS011;36749;37.428;-121.972;2024-01-11T08:04:00;10.90;;;2.35;;
50781;SDS011;36749;37.428;-121.972;2024-01-11T08:06:28;10.48;;;2.60;;
50781;SDS011;36749;37.428;-121.972;2024-01-11T08:08:54;8.73;;;2.20;;
50781;SDS011;36749;37.428;-121.972;2024-01-11T08:11:20;13.63;;;3.17;;
50781;SDS011;36749;37.428;-121.972;2024-01-11T08:13:46;12.60;;;2.28;;
50781;SDS011;36749;37.428;-121.972;2024-01-11T08:16:16;4.82;;;1.40;;
50781;SDS011;36749;37.428;-121.972;2024-01-11T08:18:43;5.25;;;1.48;;
50781;SDS011;36749;37.428;-121.972;2024-01-11T08:21:10;6.05;;;1.58;;
50781;SDS011;36749;37.428;-121.972;2024-01-11T08:23:40;5.95;;;1.73;;
50781;SDS011;36749;37.428;-121.972;2024-01-11T08:26:10;12.20;;;1.77;;
50781;SDS011;36749;37.428;-121.972;2024-01-11T08:28:38;8.05;;;1.92;;
50781;SDS011;36749;37.428;-121.972;2024-01-11T08:31:05;5.82;;;1.45;;
50781;SDS011;36749;37.428;-121.972;2024-01-11T08:33:31;10.55;;;2.97;;
50781;SDS011;36749;37.428;-121.972;2024-01-11T08:35:57;5.40;;;1.63;;
50781;SDS011;36749;37.428;-121.972;2024-01-11T08:38:24;2.78;;;1.70;;
50781;SDS011;36749;37.428;-121.972;2024-01-11T08:40:50;5.13;;;1.60;;
50781;SDS011;36749;37.428;-121.972;2024-01-11T08:43:17;7.82;;;2.15;;
50781;SDS011;36749;37.428;-121.972;2024-01-11T08:45:43;6.00;;;1.23;;
50781;SDS011;36749;37.428;-121.972;2024-01-11T08:48:09;6.00;;;1.55;;
50781;SDS011;36749;37.428;-121.972;2024-01-11T08:50:35;6.90;;;1.35;;
50781;SDS011;36749;37.428;-121.972;2024-01-11T08:53:01;3.75;;;1.55;;
50781;SDS011;36749;37.428;-121.972;2024-01-11T08:55:27;9.60;;;1.98;;
50781;SDS011;36749;37.428;-121.972;2024-01-11T08:57:54;6.45;;;1.67;;
50781;SDS011;36749;37.428;-121.972;2024-01-11T09:00:20;9.40;;;1.80;;
50781;SDS011;36749;37.428;-121.972;2024-01-11T09:02:46;5.40;;;1.38;;
50781;SDS011;36749;37.428;-121.972;2024-01-11T09:05:15;10.02;;;1.48;;
50781;SDS011;36749;37.428;-121.972;2024-01-11T09:07:41;4.93;;;1.20;;
50781;SDS011;36749;37.428;-121.972;2024-01-11T09:10:08;9.10;;;1.58;;
50781;SDS011;36749;37.428;-121.972;2024-01-11T09:12:35;2.28;;;1.05;;
50781;SDS011;36749;37.428;-121.972;2024-01-11T09:15:01;7.20;;;1.40;;
50781;SDS011;36749;37.428;-121.972;2024-01-11T09:17:28;6.68;;;1.25;;
50781;SDS011;36749;37.428;-121.972;2024-01-11T09:19:54;7.75;;;1.40;;
50781;SDS011;36749;37.428;-121.972;2024-01-11T09:22:20;3.33;;;1.13;;
50781;SDS011;36749;37.428;-121.972;2024-01-11T09:24:46;10.38;;;1.60;;
50781;SDS011;36749;37.428;-121.972;2024-01-11T09:27:13;3.63;;;0.98;;
50781;SDS011;36749;37.428;-121.972;2024-01-11T09:29:45;11.70;;;2.33;;
50781;SDS011;36749;37.428;-121.972;2024-01-11T09:32:14;6.68;;;1.42;;
50781;SDS011;36749;37.428;-121.972;2024-01-11T09:34:40;5.65;;;1.52;;
50781;SDS011;36749;37.428;-121.972;2024-01-11T09:37:06;3.45;;;1.25;;
50781;SDS011;36749;37.428;-121.972;2024-01-11T09:39:32;9.95;;;1.85;;
50781;SDS011;36749;37.428;-121.972;2024-01-11T09:42:06;3.72;;;1.10;;
50781;SDS011;36749;37.428;-121.972;2024-01-11T09:44:35;5.72;;;1.30;;
50781;SDS011;36749;37.428;-121.972;2024-01-11T09:47:05;4.03;;;1.20;;
50781;SDS011;36749;37.428;-121.972;2024-01-11T09:49:32;5.07;;;1.83;;
50781;SDS011;36749;37.428;-121.972;2024-01-11T09:52:00;8.35;;;1.73;;
50781;SDS011;36749;37.428;-121.972;2024-01-11T09:54:26;3.97;;;1.20;;
50781;SDS011;36749;37.428;-121.972;2024-01-11T09:56:53;2.63;;;1.40;;
50781;SDS011;36749;37.428;-121.972;2024-01-11T09:59:20;7.15;;;1.52;;
50781;SDS011;36749;37.428;-121.972;2024-01-11T10:01:50;7.43;;;1.60;;
50781;SDS011;36749;37.428;-121.972;2024-01-11T10:04:16;3.63;;;1.42;;
50781;SDS011;36749;37.428;-121.972;2024-01-11T10:06:43;6.90;;;2.03;;
50781;SDS011;36749;37.428;-121.972;2024-01-11T10:09:09;7.88;;;1.70;;
50781;SDS011;36749;37.428;-121.972;2024-01-11T10:11:36;6.20;;;1.80;;
50781;SDS011;36749;37.428;-121.972;2024-01-11T10:14:03;4.20;;;1.38;;
50781;SDS011;36749;37.428;-121.972;2024-01-11T10:16:30;3.20;;;1.60;;
50781;SDS011;36749;37.428;-121.972;2024-01-11T10:18:57;3.72;;;1.38;;
50781;SDS011;36749;37.428;-121.972;2024-01-11T10:21:23;6.55;;;1.30;;
50781;SDS011;36749;37.428;-121.972;2024-01-11T10:23:50;2.20;;;1.25;;
50781;SDS011;36749;37.428;-121.972;2024-01-11T10:26:16;3.80;;;1.33;;
50781;SDS011;36749;37.428;-121.972;2024-01-11T10:28:46;3.33;;;1.00;;
50781;SDS011;36749;37.428;-121.972;2024-01-11T10:31:13;3.47;;;1.58;;
50781;SDS011;36749;37.428;-121.972;2024-01-11T10:33:43;6.75;;;1.52;;
50781;SDS011;36749;37.428;-121.972;2024-01-11T10:36:11;2.63;;;1.00;;
50781;SDS011;36749;37.428;-121.972;2024-01-11T10:38:38;2.72;;;1.45;;
50781;SDS011;36749;37.428;-121.972;2024-01-11T10:41:05;5.13;;;1.58;;
50781;SDS011;36749;37.428;-121.972;2024-01-11T10:43:32;4.78;;;1.42;;
50781;SDS011;36749;37.428;-121.972;2024-01-11T10:46:00;2.90;;;1.10;;
50781;SDS011;36749;37.428;-121.972;2024-01-11T10:48:33;1.88;;;1.20;;
50781;SDS011;36749;37.428;-121.972;2024-01-11T10:51:03;6.80;;;2.00;;
50781;SDS011;36749;37.428;-121.972;2024-01-11T10:56:15;5.30;;;1.15;;
50781;SDS011;36749;37.428;-121.972;2024-01-11T10:58:42;7.88;;;1.73;;
50781;SDS011;36749;37.428;-121.972;2024-01-11T11:01:15;4.70;;;1.38;;
50781;SDS011;36749;37.428;-121.972;2024-01-11T11:03:43;5.25;;;1.50;;
50781;SDS011;36749;37.428;-121.972;2024-01-11T11:06:10;6.65;;;1.40;;
50781;SDS011;36749;37.428;-121.972;2024-01-11T11:08:37;2.58;;;1.20;;
50781;SDS011;36749;37.428;-121.972;2024-01-11T11:11:04;3.05;;;1.33;;
50781;SDS011;36749;37.428;-121.972;2024-01-11T11:13:32;5.75;;;1.80;;
50781;SDS011;36749;37.428;-121.972;2024-01-11T11:16:00;2.33;;;1.10;;
50781;SDS011;36749;37.428;-121.972;2024-01-11T11:18:28;6.55;;;1.27;;
50781;SDS011;36749;37.428;-121.972;2024-01-11T11:20:56;1.92;;;1.40;;
50781;SDS011;36749;37.428;-121.972;2024-01-11T11:23:22;1.58;;;1.15;;
50781;SDS011;36749;37.428;-121.972;2024-01-11T11:25:49;1.48;;;1.02;;
50781;SDS011;36749;37.428;-121.972;2024-01-11T11:28:15;3.65;;;1.05;;
50781;SDS011;36749;37.428;-121.972;2024-01-11T11:30:47;4.13;;;1.17;;
50781;SDS011;36749;37.428;-121.972;2024-01-11T11:35:47;4.18;;;1.48;;
50781;SDS011;36749;37.428;-121.972;2024-01-11T11:38:18;3.40;;;1.08;;
50781;SDS011;36749;37.428;-121.972;2024-01-11T11:40:46;3.55;;;1.73;;
50781;SDS011;36749;37.428;-121.972;2024-01-11T11:43:15;2.28;;;1.08;;
50781;SDS011;36749;37.428;-121.972;2024-01-11T11:45:43;5.20;;;1.73;;
50781;SDS011;36749;37.428;-121.972;2024-01-11T11:53:35;2.33;;;1.20;;
50781;SDS011;36749;37.428;-121.972;2024-01-11T11:56:06;1.45;;;1.08;;
50781;SDS011;36749;37.428;-121.972;2024-01-11T11:58:34;2.80;;;1.23;;
50781;SDS011;36749;37.428;-121.972;2024-01-11T12:01:01;2.30;;;1.40;;
50781;SDS011;36749;37.428;-121.972;2024-01-11T12:03:37;3.63;;;1.40;;
50781;SDS011;36749;37.428;-121.972;2024-01-11T12:06:06;3.92;;;1.83;;
50781;SDS011;36749;37.428;-121.972;2024-01-11T12:08:36;3.08;;;1.52;;
50781;SDS011;36749;37.428;-121.972;2024-01-11T12:11:05;2.67;;;1.38;;
50781;SDS011;36749;37.428;-121.972;2024-01-11T12:13:31;5.00;;;1.27;;
50781;SDS011;36749;37.428;-121.972;2024-01-11T12:15:58;3.05;;;1.35;;
50781;SDS011;36749;37.428;-121.972;2024-01-11T12:18:24;2.20;;;1.30;;
50781;SDS011;36749;37.428;-121.972;2024-01-11T12:20:50;3.53;;;1.67;;
50781;SDS011;36749;37.428;-121.972;2024-01-11T12:23:18;3.08;;;1.63;;
50781;SDS011;36749;37.428;-121.972;2024-01-11T12:25:45;2.80;;;1.27;;
50781;SDS011;36749;37.428;-121.972;2024-01-11T12:28:12;4.75;;;1.30;;
50781;SDS011;36749;37.428;-121.972;2024-01-11T12:30:38;2.60;;;1.20;;
50781;SDS011;36749;37.428;-121.972;2024-01-11T12:33:04;3.50;;;1.23;;
50781;SDS011;36749;37.428;-121.972;2024-01-11T12:35:31;2.95;;;1.05;;
50781;SDS011;36749;37.428;-121.972;2024-01-11T12:38:01;1.73;;;1.27;;
50781;SDS011;36749;37.428;-121.972;2024-01-11T12:40:34;3.70;;;1.20;;
50781;SDS011;36749;37.428;-121.972;2024-01-11T12:43:05;3.65;;;1.25;;
50781;SDS011;36749;37.428;-121.972;2024-01-11T12:45:33;6.22;;;1.30;;
50781;SDS011;36749;37.428;-121.972;2024-01-11T12:48:00;7.38;;;1.70;;
50781;SDS011;36749;37.428;-121.972;2024-01-11T12:50:30;4.05;;;1.35;;
50781;SDS011;36749;37.428;-121.972;2024-01-11T12:55:33;2.90;;;1.38;;
50781;SDS011;36749;37.428;-121.972;2024-01-11T12:58:05;7.45;;;1.55;;
50781;SDS011;36749;37.428;-121.972;2024-01-11T13:00:32;2.65;;;1.33;;
50781;SDS011;36749;37.428;-121.972;2024-01-11T13:02:58;2.42;;;1.38;;
50781;SDS011;36749;37.428;-121.972;2024-01-11T13:05:25;2.70;;;1.33;;
50781;SDS011;36749;37.428;-121.972;2024-01-11T13:07:51;3.20;;;1.42;;
50781;SDS011;36749;37.428;-121.972;2024-01-11T13:10:17;1.83;;;1.10;;
50781;SDS011;36749;37.428;-121.972;2024-01-11T13:12:44;8.30;;;1.52;;
50781;SDS011;36749;37.428;-121.972;2024-01-11T13:15:11;5.75;;;1.30;;
50781;SDS011;36749;37.428;-121.972;2024-01-11T13:17:37;5.38;;;1.08;;
50781;SDS011;36749;37.428;-121.972;2024-01-11T13:20:04;5.50;;;1.15;;
50781;SDS011;36749;37.428;-121.972;2024-01-11T13:22:31;2.90;;;1.20;;
50781;SDS011;36749;37.428;-121.972;2024-01-11T13:24:57;2.95;;;1.20;;
50781;SDS011;36749;37.428;-121.972;2024-01-11T13:27:23;3.60;;;1.55;;
50781;SDS011;36749;37.428;-121.972;2024-01-11T13:29:49;2.05;;;1.08;;
50781;SDS011;36749;37.428;-121.972;2024-01-11T13:32:15;2.28;;;1.20;;
50781;SDS011;36749;37.428;-121.972;2024-01-11T13:34:41;1.65;;;1.15;;
50781;SDS011;36749;37.428;-121.972;2024-01-11T13:37:08;2.53;;;1.15;;
50781;SDS011;36749;37.428;-121.972;2024-01-11T13:39:34;4.10;;;1.52;;
50781;SDS011;36749;37.428;-121.972;2024-01-11T13:42:00;4.97;;;0.98;;
50781;SDS011;36749;37.428;-121.972;2024-01-11T13:44:28;6.05;;;1.33;;
50781;SDS011;36749;37.428;-121.972;2024-01-11T13:46:54;3.45;;;1.33;;
50781;SDS011;36749;37.428;-121.972;2024-01-11T13:49:21;7.40;;;1.65;;
50781;SDS011;36749;37.428;-121.972;2024-01-11T13:51:50;4.97;;;1.30;;
50781;SDS011;36749;37.428;-121.972;2024-01-11T13:54:16;2.85;;;1.30;;
50781;SDS011;36749;37.428;-121.972;2024-01-11T13:56:42;1.73;;;1.20;;
50781;SDS011;36749;37.428;-121.972;2024-01-11T13:59:08;2.35;;;1.08;;
50781;SDS011;36749;37.428;-121.972;2024-01-11T14:01:34;6.47;;;1.20;;
50781;SDS011;36749;37.428;-121.972;2024-01-11T14:04:01;5.07;;;1.33;;
50781;SDS011;36749;37.428;-121.972;2024-01-11T14:06:27;6.65;;;1.40;;
50781;SDS011;36749;37.428;-121.972;2024-01-11T14:08:53;5.88;;;1.30;;
50781;SDS011;36749;37.428;-121.972;2024-01-11T14:11:19;4.43;;;1.40;;
50781;SDS011;36749;37.428;-121.972;2024-01-11T14:13:45;4.70;;;1.30;;
50781;SDS011;36749;37.428;-121.972;2024-01-11T14:16:11;2.95;;;1.20;;